Time;durP1;ratioP1;P1;durP2;ratioP2;P2;SDS_P1;SDS_P2;PMS_P1;PMS_P2;Temp;Humidity;BMP_temperature;BMP_pressure;BME280_temperature;BME280_humidity;BME280_pressure;Samples;Min_cycle;Max_cycle;Signal;HPM_P1;HPM_P2
2022/09/04 00:00:18;;;;;;;2.10;1.02;;;16.40;99.90;;;;;;5026182;28;20053;-67
2022/09/04 00:03:05;;;;;;;3.67;1.02;;;16.40;99.90;;;;;;5042178;28;20047;-67
2022/09/04 00:05:44;;;;;;;2.17;1.13;;;16.40;99.90;;;;;;5022016;28;20405;-67
2022/09/04 00:08:19;;;;;;;4.57;1.40;;;16.40;99.90;;;;;;5024497;28;20212;-67
2022/09/04 00:10:52;;;;;;;2.75;1.33;;;16.30;99.90;;;;;;5025371;28;20060;-67
2022/09/04 00:13:40;;;;;;;4.43;1.23;;;16.30;99.90;;;;;;5041630;28;20051;-67
2022/09/04 00:16:23;;;;;;;4.57;1.20;;;16.30;99.90;;;;;;5022994;28;20107;-68
2022/09/04 00:19:01;;;;;;;3.75;1.10;;;16.30;99.90;;;;;;5018955;28;20068;-67
2022/09/04 00:21:34;;;;;;;9.57;1.10;;;16.30;99.90;;;;;;5028103;28;20660;-67
2022/09/04 00:24:23;;;;;;;3.50;1.20;;;16.30;99.90;;;;;;5023778;28;20051;-67
2022/09/04 00:27:03;;;;;;;4.43;0.90;;;16.40;99.90;;;;;;5024899;28;20570;-68
2022/09/04 00:30:00;;;;;;;2.85;1.30;;;16.30;99.90;;;;;;5022344;28;20507;-67
2022/09/04 00:32:38;;;;;;;3.03;1.20;;;16.30;99.90;;;;;;5026164;28;20050;-67
2022/09/04 00:35:03;;;;;;;4.65;1.40;;;16.30;99.90;;;;;;5024766;28;20061;-67
2022/09/04 00:37:38;;;;;;;4.45;1.23;;;16.30;99.90;;;;;;5029542;28;20718;-67
2022/09/04 00:40:13;;;;;;;3.70;1.23;;;16.30;99.90;;;;;;5024087;28;20049;-68
2022/09/04 00:43:12;;;;;;;2.03;1.02;;;16.30;99.90;;;;;;5020829;28;20129;-67
2022/09/04 00:46:03;;;;;;;3.00;1.30;;;16.30;99.90;;;;;;5025247;28;20179;-67
2022/09/04 00:48:57;;;;;;;4.20;1.13;;;16.30;99.90;;;;;;5012514;28;20087;-67
2022/09/04 00:51:39;;;;;;;5.15;1.45;;;16.30;99.90;;;;;;5043470;28;20063;-67
2022/09/04 00:54:07;;;;;;;4.82;1.50;;;16.30;99.90;;;;;;5033859;28;20393;-67
2022/09/04 00:57:02;;;;;;;4.63;1.30;;;16.20;99.90;;;;;;5031846;28;20048;-68
2022/09/04 00:59:56;;;;;;;3.88;1.38;;;16.20;99.90;;;;;;5040587;28;20142;-67
2022/09/04 01:02:37;;;;;;;4.25;1.58;;;16.20;99.90;;;;;;5041287;28;20056;-68
2022/09/04 01:05:44;;;;;;;4.28;1.50;;;16.20;99.90;;;;;;5040006;28;20586;-67
2022/09/04 01:08:09;;;;;;;5.43;1.27;;;16.20;99.90;;;;;;5004340;28;20053;-67
2022/09/04 01:10:53;;;;;;;3.72;1.40;;;16.20;99.90;;;;;;5041234;28;20067;-67
2022/09/04 01:13:44;;;;;;;4.57;1.63;;;16.10;99.90;;;;;;5038350;28;20059;-67
2022/09/04 01:16:38;;;;;;;3.55;1.52;;;16.10;99.90;;;;;;5013115;28;20053;-68
2022/09/04 01:19:13;;;;;;;4.88;1.50;;;16.00;99.90;;;;;;5025702;28;20125;-67
2022/09/04 01:21:57;;;;;;;5.15;1.60;;;16.00;99.90;;;;;;5022722;28;20144;-67
2022/09/04 01:24:58;;;;;;;4.20;1.33;;;16.00;99.90;;;;;;5020940;28;20756;-67
2022/09/04 01:27:33;;;;;;;4.53;1.50;;;16.00;99.90;;;;;;5004260;28;20741;-67
2022/09/04 01:30:05;;;;;;;5.30;1.55;;;15.90;99.90;;;;;;5023841;28;20119;-67
2022/09/04 01:32:40;;;;;;;4.00;1.70;;;15.90;99.90;;;;;;5021186;28;20049;-67
2022/09/04 01:35:29;;;;;;;5.28;1.65;;;15.90;99.90;;;;;;5021874;28;20508;-67
2022/09/04 01:38:32;;;;;;;4.18;1.30;;;15.90;99.90;;;;;;5024323;28;20126;-67
2022/09/04 01:41:32;;;;;;;4.75;1.67;;;15.90;99.90;;;;;;5041833;28;20051;-67
2022/09/04 01:43:58;;;;;;;2.75;1.50;;;15.90;99.90;;;;;;5037693;28;20492;-67
2022/09/04 01:46:33;;;;;;;5.85;1.75;;;15.80;99.90;;;;;;5008387;28;20061;-68
2022/09/04 01:49:04;;;;;;;2.50;1.55;;;15.80;99.90;;;;;;5041897;28;20052;-67
2022/09/04 01:51:41;;;;;;;3.58;1.60;;;15.80;99.90;;;;;;5021059;28;20131;-67
2022/09/04 01:54:10;;;;;;;7.22;1.90;;;15.70;99.90;;;;;;5010477;28;20488;-67
2022/09/04 01:57:07;;;;;;;5.95;2.00;;;15.80;99.90;;;;;;5025970;28;20056;-67
2022/09/04 01:59:47;;;;;;;4.85;1.65;;;15.80;99.90;;;;;;5017890;28;20041;-67
2022/09/04 02:02:32;;;;;;;3.03;1.50;;;15.70;99.90;;;;;;5042947;28;20526;-67
2022/09/04 02:05:08;;;;;;;3.95;1.73;;;15.70;99.90;;;;;;5020825;28;20098;-67
2022/09/04 02:07:44;;;;;;;4.45;1.90;;;15.70;99.90;;;;;;5007601;28;20498;-67
2022/09/04 02:10:21;;;;;;;8.70;1.70;;;15.70;99.90;;;;;;5043234;28;20045;-67
2022/09/04 02:13:05;;;;;;;7.93;1.83;;;15.60;99.90;;;;;;5038581;28;20530;-67
2022/09/04 02:15:40;;;;;;;3.83;1.60;;;15.60;99.90;;;;;;5036179;28;20124;-67
2022/09/04 02:18:31;;;;;;;5.80;1.75;;;15.50;99.90;;;;;;5005020;28;20133;-67
2022/09/04 02:21:18;;;;;;;5.63;1.80;;;15.50;99.90;;;;;;5041870;28;20056;-67
2022/09/04 02:24:05;;;;;;;4.80;1.60;;;15.30;99.90;;;;;;5039180;28;20045;-67
2022/09/04 02:26:51;;;;;;;2.75;1.40;;;15.20;99.90;;;;;;5022860;28;20401;-68
2022/09/04 02:29:31;;;;;;;4.32;1.60;;;15.10;99.90;;;;;;5039854;28;20053;-66
2022/09/04 02:32:07;;;;;;;4.10;1.45;;;15.10;99.90;;;;;;5037757;28;20480;-67
2022/09/04 02:34:38;;;;;;;4.57;1.40;;;15.00;99.90;;;;;;5018108;28;20048;-67
2022/09/04 02:37:19;;;;;;;;;;;14.90;99.90;;;;;;5005055;28;20091;-67
2022/09/04 02:40:10;;;;;;;2.63;1.00;;;14.90;99.90;;;;;;5041236;28;20088;-67
2022/09/04 02:43:05;;;;;;;3.03;1.40;;;14.90;99.90;;;;;;5023111;28;20046;-67
2022/09/04 02:45:58;;;;;;;3.17;1.60;;;14.80;99.90;;;;;;5043224;28;20148;-67
2022/09/04 02:48:43;;;;;;;2.85;1.63;;;14.70;99.90;;;;;;5025932;28;20123;-67
2022/09/04 02:51:30;;;;;;;4.28;1.77;;;14.60;99.90;;;;;;5044835;28;20036;-67
2022/09/04 02:54:31;;;;;;;4.50;1.67;;;14.60;99.90;;;;;;5022560;28;20075;-66
2022/09/04 02:57:08;;;;;;;3.35;1.75;;;14.60;99.90;;;;;;4996987;28;20524;-67
2022/09/04 02:59:48;;;;;;;3.88;1.85;;;14.60;99.90;;;;;;5044421;28;20939;-67
2022/09/04 03:02:37;;;;;;;5.87;1.73;;;14.60;99.90;;;;;;5043783;28;20049;-67
2022/09/04 03:05:27;;;;;;;5.20;1.70;;;14.60;99.90;;;;;;5043239;28;20101;-67
2022/09/04 03:08:00;;;;;;;5.18;1.80;;;14.50;99.90;;;;;;5015262;28;20057;-67
2022/09/04 03:10:32;;;;;;;3.10;1.58;;;14.50;99.90;;;;;;5027519;28;20049;-66
2022/09/04 03:13:12;;;;;;;7.25;1.52;;;14.50;99.90;;;;;;5044219;28;20052;-67
2022/09/04 03:16:11;;;;;;;4.28;1.60;;;14.50;99.90;;;;;;5024853;28;20043;-67
2022/09/04 03:19:14;;;;;;;3.80;1.52;;;14.40;99.90;;;;;;5019314;28;20073;-67
2022/09/04 03:22:05;;;;;;;3.38;1.70;;;14.40;99.90;;;;;;5009270;28;20049;-67
2022/09/04 03:24:47;;;;;;;3.40;1.70;;;14.40;99.90;;;;;;5014002;28;20124;-67
2022/09/04 03:27:15;;;;;;;4.13;1.42;;;14.40;99.90;;;;;;5025953;28;20045;-67
2022/09/04 03:30:11;;;;;;;5.95;1.63;;;14.40;99.90;;;;;;5045630;28;20041;-67
2022/09/04 03:32:48;;;;;;;2.45;1.70;;;14.30;99.90;;;;;;5040404;28;20144;-67
2022/09/04 03:35:45;;;;;;;1.95;1.27;;;14.30;99.90;;;;;;5023214;28;20053;-67
2022/09/04 03:38:33;;;;;;;3.85;1.50;;;14.20;99.90;;;;;;4999912;28;20144;-67
2022/09/04 03:41:33;;;;;;;2.72;1.95;;;14.10;99.90;;;;;;5006884;28;20080;-66
2022/09/04 03:44:07;;;;;;;4.78;1.67;;;14.00;99.90;;;;;;5021440;28;20148;-66
2022/09/04 03:46:55;;;;;;;3.38;1.80;;;14.00;99.90;;;;;;5027097;28;20554;-67
2022/09/04 03:49:41;;;;;;;3.17;1.67;;;14.00;99.90;;;;;;5041478;28;20037;-67
2022/09/04 03:52:47;;;;;;;4.32;1.92;;;14.00;99.90;;;;;;5024883;28;20157;-67
2022/09/04 03:55:37;;;;;;;3.42;1.42;;;14.00;99.90;;;;;;5020369;28;20049;-67
2022/09/04 03:58:43;;;;;;;4.32;1.75;;;14.00;99.90;;;;;;5023081;28;20413;-67
2022/09/04 04:01:27;;;;;;;5.38;1.42;;;14.00;99.90;;;;;;4987235;28;20115;-66
2022/09/04 04:04:21;;;;;;;4.32;1.90;;;14.00;99.90;;;;;;5038187;28;20041;-66
2022/09/04 04:07:18;;;;;;;3.50;2.00;;;14.00;99.90;;;;;;5026885;28;20080;-67
2022/09/04 04:10:18;;;;;;;3.30;1.70;;;13.80;99.90;;;;;;5043981;28;20461;-66
2022/09/04 04:13:07;;;;;;;4.25;1.70;;;13.70;99.90;;;;;;5024574;28;20451;-67
2022/09/04 04:15:41;;;;;;;6.20;2.15;;;13.60;99.90;;;;;;5044460;28;20312;-67
2022/09/04 04:18:37;;;;;;;5.63;2.08;;;13.70;99.90;;;;;;5025815;28;20136;-66
2022/09/04 04:21:26;;;;;;;3.55;1.70;;;13.50;99.90;;;;;;5026181;28;20096;-66
2022/09/04 04:24:20;;;;;;;3.55;2.03;;;13.40;99.90;;;;;;5021836;28;20060;-67
2022/09/04 04:27:03;;;;;;;2.30;1.77;;;13.30;99.90;;;;;;5028941;28;20524;-67
2022/09/04 04:29:43;;;;;;;7.53;2.00;;;13.20;99.90;;;;;;5025487;28;20488;-66
2022/09/04 04:32:43;;;;;;;4.90;1.70;;;13.20;99.90;;;;;;5040410;28;20049;-67
2022/09/04 04:35:39;;;;;;;3.70;1.70;;;13.20;99.90;;;;;;5037701;28;20049;-65
2022/09/04 04:38:45;;;;;;;2.75;2.10;;;13.20;99.90;;;;;;5008037;28;20567;-66
2022/09/04 04:41:13;;;;;;;3.55;1.83;;;13.30;99.90;;;;;;5014801;28;20080;-66
2022/09/04 04:44:15;;;;;;;5.03;1.92;;;13.40;99.90;;;;;;5041597;28;20048;-67
2022/09/04 04:47:06;;;;;;;3.75;1.95;;;13.50;99.90;;;;;;5027564;28;20512;-66
2022/09/04 04:49:36;;;;;;;6.82;2.15;;;13.50;99.90;;;;;;5023374;28;20382;-66
2022/09/04 04:52:18;;;;;;;3.90;2.00;;;13.60;99.90;;;;;;5043670;28;20045;-67
2022/09/04 04:55:05;;;;;;;5.05;2.20;;;13.70;99.90;;;;;;5035731;28;20041;-66
2022/09/04 04:57:47;;;;;;;3.92;1.98;;;13.70;99.90;;;;;;5025785;28;20526;-66
2022/09/04 05:00:19;;;;;;;4.30;2.10;;;13.80;99.90;;;;;;5021057;28;20102;-67
2022/09/04 05:02:51;;;;;;;;;;;13.80;99.90;;;;;;5023616;28;20048;-66
2022/09/04 05:05:49;;;;;;;5.63;2.17;;;13.80;99.90;;;;;;5037791;28;20307;-67
2022/09/04 05:08:34;;;;;;;6.53;2.30;;;13.90;99.90;;;;;;5006491;28;20037;-66
2022/09/04 05:11:09;;;;;;;5.22;2.38;;;13.80;99.90;;;;;;5023354;28;20405;-66
2022/09/04 05:13:53;;;;;;;5.63;2.10;;;13.80;99.90;;;;;;5037041;28;20051;-66
2022/09/04 05:16:22;;;;;;;6.78;2.03;;;13.80;99.90;;;;;;5028818;28;20401;-66
2022/09/04 05:19:14;;;;;;;5.80;2.20;;;13.90;99.90;;;;;;5037186;28;20048;-66
2022/09/04 05:21:52;;;;;;;6.13;2.17;;;13.90;99.90;;;;;;5042564;28;20048;-67
2022/09/04 05:24:35;;;;;;;5.70;2.20;;;13.90;99.90;;;;;;5041166;28;20080;-66
2022/09/04 05:27:19;;;;;;;4.45;2.08;;;13.90;99.90;;;;;;5007392;28;20041;-67
2022/09/04 05:30:09;;;;;;;4.57;2.05;;;14.00;99.90;;;;;;5022321;28;20515;-67
2022/09/04 05:32:42;;;;;;;3.75;2.13;;;14.00;99.90;;;;;;5039730;28;20037;-66
2022/09/04 05:35:40;;;;;;;3.53;2.35;;;14.00;99.90;;;;;;5023764;28;20138;-66
2022/09/04 05:38:18;;;;;;;4.00;2.05;;;14.10;99.90;;;;;;5007637;28;20056;-66
2022/09/04 05:40:59;;;;;;;8.90;2.35;;;14.10;99.90;;;;;;5041491;28;20040;-66
2022/09/04 05:43:57;;;;;;;6.75;2.35;;;14.20;99.90;;;;;;5023733;28;20041;-67
2022/09/04 05:46:51;;;;;;;3.30;2.03;;;14.20;99.90;;;;;;4971543;28;20488;-67
2022/09/04 05:49:27;;;;;;;2.22;1.90;;;14.30;99.90;;;;;;5040528;28;20053;-67
2022/09/04 05:52:24;;;;;;;4.32;1.92;;;14.30;99.90;;;;;;5024264;28;20045;-67
2022/09/04 05:55:01;;;;;;;8.45;2.30;;;14.30;99.90;;;;;;5022849;28;20076;-66
2022/09/04 05:58:00;;;;;;;5.72;2.05;;;14.40;99.90;;;;;;5024642;28;20418;-66
2022/09/04 06:00:37;;;;;;;4.70;2.03;;;14.50;99.90;;;;;;5015178;28;20056;-66
2022/09/04 06:03:58;;;;;;;4.90;2.22;;;14.60;99.90;;;;;;5042627;28;20742;-67
2022/09/04 06:06:42;;;;;;;2.55;1.90;;;14.70;99.90;;;;;;4949495;28;20051;-67
2022/09/04 06:09:18;;;;;;;3.97;1.75;;;14.80;99.90;;;;;;5042058;28;20510;-67
2022/09/04 06:11:59;;;;;;;2.90;1.92;;;14.90;99.90;;;;;;5038158;28;20049;-67
2022/09/04 06:14:31;;;;;;;4.88;1.98;;;15.00;99.90;;;;;;5023064;28;20049;-67
2022/09/04 06:17:00;;;;;;;6.53;2.20;;;15.00;99.90;;;;;;5007111;28;21113;-67
2022/09/04 06:19:49;;;;;;;6.18;2.13;;;15.20;99.90;;;;;;5045505;28;20053;-67
2022/09/04 06:22:18;;;;;;;5.10;2.00;;;15.40;99.90;;;;;;5024311;28;20049;-67
2022/09/04 06:25:34;;;;;;;4.90;2.13;;;15.40;99.90;;;;;;5046592;28;20037;-67
2022/09/04 06:28:18;;;;;;;4.60;2.08;;;15.60;99.90;;;;;;4935132;28;20043;-67
2022/09/04 06:30:58;;;;;;;4.07;2.08;;;15.70;99.90;;;;;;4965817;28;20114;-67
2022/09/04 06:33:59;;;;;;;4.07;2.40;;;15.80;99.90;;;;;;5010582;28;20045;-68
2022/09/04 06:36:38;;;;;;;5.90;2.63;;;15.70;99.90;;;;;;4945925;28;20544;-67
2022/09/04 06:39:37;;;;;;;5.53;2.25;;;15.80;99.90;;;;;;5024158;28;20284;-67
2022/09/04 06:42:08;;;;;;;4.57;2.15;;;15.80;99.90;;;;;;5028585;28;20044;-68
2022/09/04 06:44:37;;;;;;;;;;;15.90;99.90;;;;;;5044759;28;20041;-67
2022/09/04 06:47:14;;;;;;;5.47;2.40;;;16.00;99.90;;;;;;5029285;28;20349;-67
2022/09/04 06:50:01;;;;;;;3.78;2.03;;;16.10;99.90;;;;;;5045943;28;20626;-67
2022/09/04 06:53:05;;;;;;;5.22;2.15;;;16.10;99.90;;;;;;5047061;28;20045;-68
2022/09/04 06:55:55;;;;;;;6.30;2.13;;;16.20;99.90;;;;;;5044250;28;20060;-67
2022/09/04 06:58:58;;;;;;;5.78;2.22;;;16.30;99.90;;;;;;5026964;28;20524;-67
2022/09/04 07:01:59;;;;;;;2.65;1.88;;;16.30;99.90;;;;;;5042484;28;20075;-67
2022/09/04 07:04:43;;;;;;;5.68;2.50;;;16.40;99.90;;;;;;5042542;28;20235;-68
2022/09/04 07:07:36;;;;;;;3.92;2.20;;;16.50;99.90;;;;;;5008658;28;20064;-68
2022/09/04 07:10:14;;;;;;;7.20;2.50;;;16.50;99.90;;;;;;5042936;28;20120;-68
2022/09/04 07:12:42;;;;;;;4.95;2.17;;;16.60;99.90;;;;;;5039108;28;20142;-68
2022/09/04 07:15:31;;;;;;;3.50;2.08;;;16.60;99.90;;;;;;5043312;28;20092;-68
2022/09/04 07:18:28;;;;;;;5.95;2.15;;;16.80;99.90;;;;;;5026114;28;20396;-67
2022/09/04 07:21:21;;;;;;;6.25;2.30;;;16.80;99.90;;;;;;5044985;28;20383;-67
2022/09/04 07:23:53;;;;;;;5.47;2.40;;;16.90;99.90;;;;;;5041241;28;20156;-67
2022/09/04 07:26:31;;;;;;;3.97;1.92;;;16.90;99.90;;;;;;5032247;28;20044;-68
2022/09/04 07:29:06;;;;;;;4.00;2.05;;;17.10;99.90;;;;;;5016250;28;20115;-68
2022/09/04 07:31:53;;;;;;;2.90;2.10;;;17.10;99.90;;;;;;5021701;28;20136;-67
2022/09/04 07:34:39;;;;;;;5.00;2.08;;;17.20;99.90;;;;;;5020147;28;20057;-68
2022/09/04 07:37:39;;;;;;;3.63;1.95;;;17.40;99.90;;;;;;5024928;28;20053;-68
2022/09/04 07:40:20;;;;;;;5.75;2.30;;;17.40;99.90;;;;;;5007448;28;20053;-68
2022/09/04 07:43:07;;;;;;;4.45;2.35;;;17.40;99.90;;;;;;5022762;28;20046;-68
2022/09/04 07:45:49;;;;;;;3.88;1.90;;;17.50;99.90;;;;;;5017368;28;20057;-68
2022/09/04 07:48:45;;;;;;;5.30;1.90;;;17.50;99.90;;;;;;4979756;28;20057;-68
2022/09/04 07:51:24;;;;;;;8.13;2.53;;;17.60;99.90;;;;;;5004104;28;20077;-67
2022/09/04 07:54:16;;;;;;;6.18;2.17;;;17.60;99.90;;;;;;5003708;28;20568;-69
2022/09/04 07:57:20;;;;;;;6.22;2.20;;;17.70;99.90;;;;;;4991392;28;20517;-67
2022/09/04 08:00:16;;;;;;;3.58;2.00;;;17.70;99.90;;;;;;5022519;28;20500;-68
2022/09/04 08:03:19;;;;;;;4.63;2.08;;;17.80;99.90;;;;;;5023120;28;20127;-68
2022/09/04 08:05:53;;;;;;;4.22;2.22;;;17.90;99.90;;;;;;5002701;28;20057;-68
2022/09/04 08:08:41;;;;;;;5.07;2.40;;;17.90;99.90;;;;;;5004621;28;20427;-69
2022/09/04 08:11:21;;;;;;;4.25;2.13;;;17.90;99.90;;;;;;5018398;28;20062;-68
2022/09/04 08:14:00;;;;;;;4.60;2.08;;;18.00;99.90;;;;;;5020949;28;20061;-68
2022/09/04 08:16:54;;;;;;;3.85;2.20;;;18.00;99.90;;;;;;5007572;28;20579;-68
2022/09/04 08:19:28;;;;;;;5.00;2.00;;;18.20;99.90;;;;;;5023524;28;20125;-68
2022/09/04 08:21:55;;;;;;;4.43;1.95;;;18.20;99.90;;;;;;5002339;28;20045;-68
2022/09/04 08:24:42;;;;;;;5.03;2.05;;;18.20;99.90;;;;;;5022257;28;20147;-68
2022/09/04 08:27:27;;;;;;;6.95;2.17;;;18.30;99.90;;;;;;5007477;28;20091;-68
2022/09/04 08:30:07;;;;;;;4.05;1.55;;;18.40;99.90;;;;;;5020977;28;20404;-68
2022/09/04 08:32:54;;;;;;;5.03;1.90;;;18.60;99.90;;;;;;5020695;28;20048;-69
2022/09/04 08:35:52;;;;;;;6.05;1.98;;;18.80;99.90;;;;;;5022729;28;20284;-68
2022/09/04 08:38:47;;;;;;;2.88;2.00;;;18.80;99.90;;;;;;5008185;28;20492;-68
2022/09/04 08:41:32;;;;;;;3.78;1.60;;;18.90;99.90;;;;;;5022837;28;20080;-68
2022/09/04 08:44:21;;;;;;;4.30;1.90;;;19.00;99.90;;;;;;5019467;28;20073;-68
2022/09/04 08:47:00;;;;;;;5.35;2.25;;;19.20;99.90;;;;;;5006136;28;20061;-69
2022/09/04 08:49:55;;;;;;;4.57;1.75;;;19.30;99.90;;;;;;5016768;28;20583;-68
2022/09/04 08:52:51;;;;;;;3.72;1.80;;;19.40;99.90;;;;;;4990769;28;20492;-68
2022/09/04 08:55:42;;;;;;;6.38;1.95;;;19.50;99.90;;;;;;5021384;28;20558;-68
2022/09/04 08:58:45;;;;;;;3.23;1.57;;;19.60;99.90;;;;;;5004536;28;20791;-69
2022/09/04 09:01:27;;;;;;;4.18;1.63;;;19.70;99.90;;;;;;5018487;28;20831;-68
2022/09/04 09:04:05;;;;;;;4.30;2.00;;;19.90;99.90;;;;;;5024426;28;20072;-68
2022/09/04 09:06:49;;;;;;;5.95;1.73;;;19.90;99.90;;;;;;5009280;28;20536;-69
2022/09/04 09:09:55;;;;;;;2.10;1.85;;;20.10;99.90;;;;;;5021130;28;20401;-69
2022/09/04 09:12:55;;;;;;;2.60;1.35;;;20.20;99.90;;;;;;5019382;28;20052;-68
2022/09/04 09:15:48;;;;;;;3.67;1.40;;;20.30;99.90;;;;;;5020640;28;20511;-68
2022/09/04 09:18:16;;;;;;;2.00;1.50;;;20.40;99.90;;;;;;5004006;28;20139;-68
2022/09/04 09:20:55;;;;;;;3.85;1.45;;;20.50;99.90;;;;;;5016985;28;20298;-69
2022/09/04 09:23:57;;;;;;;3.78;1.58;;;20.60;99.90;;;;;;5020212;28;20041;-69
2022/09/04 09:26:29;;;;;;;2.55;1.20;;;20.80;99.90;;;;;;5007130;28;20509;-69
2022/09/04 09:29:22;;;;;;;2.50;1.35;;;21.00;99.90;;;;;;5017755;28;20050;-69
2022/09/04 09:32:00;;;;;;;2.63;1.13;;;21.10;99.90;;;;;;5020236;28;20045;-69
2022/09/04 09:34:46;;;;;;;2.72;1.70;;;21.20;99.90;;;;;;5021404;28;20084;-68
2022/09/04 09:37:25;;;;;;;4.60;1.30;;;21.40;99.90;;;;;;5004413;28;20060;-69
2022/09/04 09:40:04;;;;;;;4.43;1.48;;;21.40;99.90;;;;;;5018576;28;20124;-69
2022/09/04 09:42:48;;;;;;;2.53;1.30;;;21.50;99.90;;;;;;5035113;28;20041;-69
2022/09/04 09:45:25;;;;;;;2.50;1.25;;;21.40;99.90;;;;;;5024586;28;20103;-69
2022/09/04 09:48:30;;;;;;;3.03;1.42;;;21.40;99.90;;;;;;5005008;28;20053;-68
2022/09/04 09:51:01;;;;;;;2.70;1.50;;;21.50;99.90;;;;;;5038418;28;20545;-69
2022/09/04 09:53:46;;;;;;;;;;;21.60;99.90;;;;;;5038259;28;20099;-69
2022/09/04 09:56:44;;;;;;;2.58;1.17;;;21.60;99.90;;;;;;5034978;28;19931;-70
2022/09/04 09:59:25;;;;;;;2.72;1.25;;;21.70;99.90;;;;;;5039506;28;20076;-70
2022/09/04 10:02:25;;;;;;;3.20;1.50;;;21.90;99.90;;;;;;5035406;28;20041;-69
2022/09/04 10:05:12;;;;;;;4.85;0.90;;;21.90;99.90;;;;;;5040719;28;20042;-69
2022/09/04 10:08:10;;;;;;;3.42;1.30;;;22.00;99.90;;;;;;5020432;28;20045;-68
2022/09/04 10:10:45;;;;;;;5.03;1.25;;;22.10;99.90;;;;;;5039824;28;20136;-69
2022/09/04 10:13:19;;;;;;;3.08;1.17;;;22.20;99.90;;;;;;5040146;28;20050;-70
2022/09/04 10:16:32;;;;;;;3.50;1.27;;;22.40;99.90;;;;;;5044799;28;20500;-70
2022/09/04 10:18:58;;;;;;;6.63;1.20;;;22.40;99.90;;;;;;4979685;28;20052;-69
2022/09/04 10:21:48;;;;;;;3.75;1.00;;;22.40;99.90;;;;;;5038743;28;20049;-69
2022/09/04 10:24:36;;;;;;;3.78;1.10;;;22.40;99.90;;;;;;5040313;28;20044;-70
2022/09/04 10:27:10;;;;;;;4.50;1.20;;;22.70;99.90;;;;;;5024086;28;20508;-70
2022/09/04 10:29:43;;;;;;;4.30;1.30;;;22.80;99.90;;;;;;5037815;28;20079;-69
2022/09/04 10:32:12;;;;;;;3.50;0.88;;;22.80;99.90;;;;;;5035019;28;20054;-69
2022/09/04 10:35:11;;;;;;;5.55;1.00;;;22.90;99.90;;;;;;5044737;28;20057;-70
2022/09/04 10:38:10;;;;;;;2.10;0.90;;;22.80;99.60;;;;;;5024350;28;20570;-69
2022/09/04 10:41:08;;;;;;;4.85;0.93;;;22.90;99.20;;;;;;5038990;28;20515;-69
2022/09/04 10:44:18;;;;;;;2.50;0.90;;;22.90;99.30;;;;;;5041196;28;20504;-69
2022/09/04 10:47:29;;;;;;;2.85;1.13;;;23.10;99.00;;;;;;4984637;28;20513;-71
2022/09/04 10:50:26;;;;;;;3.95;1.17;;;23.20;98.50;;;;;;5034086;28;20037;-70
2022/09/04 10:53:30;;;;;;;2.20;1.08;;;23.20;99.10;;;;;;5035813;28;20103;-69
2022/09/04 10:56:04;;;;;;;2.60;1.02;;;23.30;99.50;;;;;;5039606;28;20503;-70
2022/09/04 10:59:05;;;;;;;3.88;1.00;;;23.30;98.40;;;;;;5023755;28;20526;-70
2022/09/04 11:01:57;;;;;;;3.85;0.90;;;23.30;99.20;;;;;;5037564;28;20048;-70
2022/09/04 11:04:59;;;;;;;4.32;0.85;;;23.40;99.20;;;;;;5041271;28;20552;-70
2022/09/04 11:08:04;;;;;;;3.58;0.90;;;23.50;98.70;;;;;;5023447;28;20120;-70
2022/09/04 11:10:37;;;;;;;5.85;1.30;;;23.50;98.80;;;;;;5038510;28;20057;-70
2022/09/04 11:13:25;;;;;;;3.38;1.15;;;23.60;99.10;;;;;;5043085;28;20412;-70
2022/09/04 11:16:13;;;;;;;3.03;1.00;;;23.80;97.80;;;;;;5013574;28;20063;-70
2022/09/04 11:19:02;;;;;;;3.78;0.95;;;23.90;97.60;;;;;;5033399;28;20459;-70
2022/09/04 11:21:53;;;;;;;6.13;1.02;;;24.10;97.80;;;;;;5020637;28;20488;-70
2022/09/04 11:24:32;;;;;;;;;;;24.00;96.90;;;;;;5043983;28;20055;-70
2022/09/04 11:27:08;;;;;;;3.22;1.08;;;24.00;97.60;;;;;;5027409;28;19932;-70
2022/09/04 11:29:55;;;;;;;3.63;1.08;;;24.00;97.30;;;;;;5042627;28;20500;-70
2022/09/04 11:32:52;;;;;;;2.00;1.00;;;24.00;97.50;;;;;;5040863;28;20083;-70
2022/09/04 11:35:50;;;;;;;6.93;1.05;;;23.90;97.30;;;;;;5043963;28;20082;-69
2022/09/04 11:38:44;;;;;;;3.42;1.02;;;23.90;96.90;;;;;;5013553;28;20553;-69
2022/09/04 11:41:42;;;;;;;3.90;1.10;;;23.90;97.30;;;;;;5036012;28;20087;-70
2022/09/04 11:44:24;;;;;;;6.00;1.00;;;23.90;96.30;;;;;;5043232;28;20052;-70
2022/09/04 11:46:49;;;;;;;3.15;1.27;;;23.70;96.40;;;;;;5028693;28;20061;-70
2022/09/04 11:49:45;;;;;;;4.88;0.85;;;23.80;96.20;;;;;;5042269;28;20091;-69
2022/09/04 11:52:30;;;;;;;2.83;0.73;;;23.90;96.80;;;;;;5042784;28;20522;-69
2022/09/04 11:55:17;;;;;;;4.18;1.20;;;24.00;96.80;;;;;;5044131;28;20045;-69
2022/09/04 11:58:12;;;;;;;3.83;1.20;;;23.90;96.30;;;;;;5023559;28;20501;-70
2022/09/04 12:00:59;;;;;;;2.60;1.10;;;24.10;96.20;;;;;;5032641;28;20053;-70
2022/09/04 12:03:30;;;;;;;2.95;1.00;;;24.40;96.60;;;;;;5038787;28;20128;-69
2022/09/04 12:05:59;;;;;;;1.58;1.13;;;24.40;96.20;;;;;;5043314;28;20122;-69
2022/09/04 12:08:30;;;;;;;3.25;1.20;;;24.50;96.90;;;;;;5022429;28;20099;-70
2022/09/04 12:11:30;;;;;;;4.63;1.05;;;24.40;96.00;;;;;;5037427;28;20457;-70
2022/09/04 12:14:41;;;;;;;4.30;1.10;;;24.40;95.80;;;;;;5040542;28;20070;-70
2022/09/04 12:17:14;;;;;;;5.72;1.00;;;24.40;97.00;;;;;;5015097;28;20422;-69
2022/09/04 12:20:03;;;;;;;1.95;1.17;;;24.50;96.40;;;;;;5040212;28;20052;-69
2022/09/04 12:22:49;;;;;;;1.88;0.90;;;24.40;96.20;;;;;;5039244;28;20131;-69
2022/09/04 12:25:43;;;;;;;3.67;1.00;;;24.50;96.40;;;;;;5040564;28;20357;-70
2022/09/04 12:28:25;;;;;;;5.38;1.30;;;24.50;96.20;;;;;;5023523;28;20081;-70
2022/09/04 12:31:02;;;;;;;2.13;1.00;;;24.40;95.80;;;;;;5042563;28;20049;-70
2022/09/04 12:33:37;;;;;;;1.50;0.98;;;24.50;96.80;;;;;;5038886;28;20049;-70
2022/09/04 12:36:32;;;;;;;3.25;0.85;;;24.60;95.90;;;;;;5040903;28;20068;-70
2022/09/04 12:39:35;;;;;;;4.35;1.30;;;24.50;96.20;;;;;;5040771;28;20052;-70
2022/09/04 12:42:10;;;;;;;1.85;0.93;;;24.40;95.80;;;;;;5041777;28;20075;-69
2022/09/04 12:44:41;;;;;;;5.28;1.05;;;24.60;96.90;;;;;;5041822;28;20414;-69
2022/09/04 12:47:27;;;;;;;2.85;1.20;;;24.60;96.20;;;;;;5025452;28;20065;-70
2022/09/04 12:50:17;;;;;;;4.65;0.85;;;24.80;96.00;;;;;;5041362;28;20114;-69
2022/09/04 12:53:06;;;;;;;3.15;1.08;;;24.90;95.90;;;;;;5034967;28;20049;-70
2022/09/04 12:55:51;;;;;;;3.60;0.90;;;25.00;95.10;;;;;;5042931;28;20123;-70
2022/09/04 12:58:25;;;;;;;1.65;1.10;;;25.00;96.50;;;;;;5027148;28;20124;-70
2022/09/04 13:01:09;;;;;;;4.22;1.10;;;25.00;95.70;;;;;;5040730;28;20045;-70
2022/09/04 13:03:44;;;;;;;3.67;1.15;;;25.10;96.00;;;;;;5041306;28;20091;-70
2022/09/04 13:06:12;;;;;;;2.90;1.02;;;25.00;94.30;;;;;;5035975;28;20046;-71
2022/09/04 13:08:44;;;;;;;2.78;0.93;;;24.90;94.70;;;;;;5034897;28;20049;-70
2022/09/04 13:11:43;;;;;;;1.83;0.90;;;24.80;95.20;;;;;;5036890;28;20049;-70
2022/09/04 13:14:59;;;;;;;5.15;1.00;;;24.90;94.50;;;;;;5034694;28;20049;-70
2022/09/04 13:18:07;;;;;;;1.63;0.77;;;24.80;94.30;;;;;;4952437;28;20047;-71
2022/09/04 13:21:01;;;;;;;2.03;1.00;;;24.90;95.10;;;;;;5027337;28;20063;-70
2022/09/04 13:23:40;;;;;;;1.70;0.80;;;25.10;96.20;;;;;;5034165;28;20074;-69
2022/09/04 13:26:42;;;;;;;4.75;1.00;;;25.20;94.70;;;;;;5036583;28;20045;-71
2022/09/04 13:29:34;;;;;;;3.28;1.10;;;25.30;94.70;;;;;;5035684;28;20057;-70
2022/09/04 13:32:19;;;;;;;4.47;1.00;;;25.20;95.10;;;;;;5027017;28;20228;-70
2022/09/04 13:35:08;;;;;;;2.35;0.90;;;25.20;93.80;;;;;;5039492;28;20038;-70
2022/09/04 13:38:09;;;;;;;1.75;0.90;;;25.20;94.40;;;;;;5009532;28;20502;-69
2022/09/04 13:41:03;;;;;;;4.07;0.90;;;25.20;93.90;;;;;;5041183;28;20128;-70
2022/09/04 13:43:40;;;;;;;4.32;0.85;;;25.10;93.90;;;;;;5039826;28;20076;-70
2022/09/04 13:46:12;;;;;;;6.53;0.88;;;25.20;94.20;;;;;;5038287;28;20052;-71
2022/09/04 13:48:46;;;;;;;1.83;0.95;;;25.20;93.90;;;;;;5030395;28;20036;-70
2022/09/04 13:51:21;;;;;;;3.55;1.00;;;25.10;94.40;;;;;;5020029;28;20049;-70
2022/09/04 13:54:10;;;;;;;4.25;0.98;;;25.10;94.00;;;;;;5039348;28;20519;-70
2022/09/04 13:56:59;;;;;;;1.95;0.80;;;25.20;95.00;;;;;;5027133;28;20534;-70
2022/09/04 13:59:25;;;;;;;3.38;1.00;;;25.20;94.60;;;;;;5035166;28;20048;-70
2022/09/04 14:01:57;;;;;;;3.80;1.10;;;25.20;94.50;;;;;;5041703;28;20049;-70
2022/09/04 14:04:26;;;;;;;1.23;1.00;;;25.10;94.20;;;;;;5036282;28;20390;-70
2022/09/04 14:07:06;;;;;;;6.03;0.85;;;25.20;93.80;;;;;;5028128;28;20059;-70
2022/09/04 14:09:38;;;;;;;4.65;1.08;;;25.10;93.30;;;;;;5043150;28;20052;-70
2022/09/04 14:12:23;;;;;;;3.95;0.85;;;25.10;92.90;;;;;;5037373;28;20071;-69
2022/09/04 14:15:19;;;;;;;3.58;1.20;;;25.10;93.80;;;;;;5038932;28;20045;-70
2022/09/04 14:18:12;;;;;;;1.65;0.88;;;25.10;93.30;;;;;;5019665;28;20488;-69
2022/09/04 14:20:56;;;;;;;2.13;0.73;;;25.20;94.10;;;;;;5035258;28;20057;-70
2022/09/04 14:23:43;;;;;;;1.35;0.95;;;25.20;93.30;;;;;;5018297;28;20073;-69